createdAt,value
2018-09-11T00:00:40.240Z,87.18
2018-09-11T00:01:40.368Z,87.37
2018-09-11T00:02:40.592Z,88.04
2018-09-11T00:03:40.723Z,87.95
2018-09-11T00:04:40.911Z,86.22
2018-09-11T00:05:41.106Z,85.36
2018-09-11T00:06:41.307Z,85.84
2018-09-11T00:07:41.509Z,85.94
2018-09-11T00:08:41.691Z,85.55
2018-09-11T00:09:41.868Z,85.46
2018-09-11T00:10:42.038Z,84.22
2018-09-11T00:11:42.235Z,83.89
2018-09-11T00:12:42.418Z,83.12
2018-09-11T00:13:42.558Z,82.74
2018-09-11T00:14:42.746Z,81.88
2018-09-11T00:15:42.945Z,81.68
2018-09-11T00:16:43.124Z,79.87
2018-09-11T00:17:43.302Z,80.06
2018-09-11T00:18:43.511Z,80.06
2018-09-11T00:19:43.731Z,79.49
2018-09-11T00:20:43.874Z,78.53
2018-09-11T00:21:44.057Z,78.53
2018-09-11T00:22:44.308Z,78.14
2018-09-11T00:23:44.486Z,78.14
2018-09-11T00:24:44.670Z,77.86
2018-09-11T00:25:44.845Z,77.76
2018-09-11T00:26:45.029Z,77.76
2018-09-11T00:27:45.204Z,77.19
2018-09-11T00:28:45.388Z,76.90
2018-09-11T00:29:45.568Z,77.86
2018-09-11T00:30:45.759Z,77.76
2018-09-11T00:31:45.953Z,78.14
2018-09-11T00:32:46.165Z,78.38
2018-09-11T00:33:46.302Z,77.76
2018-09-11T00:34:46.487Z,77.76
2018-09-11T00:35:46.668Z,77.09
2018-09-11T00:36:46.833Z,76.90
2018-09-11T00:37:47.025Z,76.62
2018-09-11T00:38:47.215Z,76.71
2018-09-11T00:39:47.403Z,77.95
2018-09-11T00:40:47.580Z,77.86
2018-09-11T00:41:47.779Z,78.05
2018-09-11T00:42:47.931Z,78.34
2018-09-11T00:43:48.149Z,78.53
2018-09-11T00:44:48.291Z,78.34
2018-09-11T00:45:48.473Z,78.81
2018-09-11T00:46:48.659Z,78.63
2018-09-11T00:47:48.848Z,76.71
2018-09-11T00:48:49.036Z,76.62
2018-09-11T00:49:49.245Z,75.27
2018-09-11T00:50:49.412Z,74.41
2018-09-11T00:51:49.616Z,74.22
2018-09-11T00:52:49.786Z,74.61
2018-09-11T00:53:49.925Z,74.04
2018-09-11T00:54:50.109Z,73.75
2018-09-11T00:55:50.292Z,72.88
2018-09-11T00:56:50.491Z,74.04
2018-09-11T00:57:50.673Z,74.99
2018-09-11T00:58:50.880Z,74.32
2018-09-11T00:59:51.038Z,74.61
2018-09-11T01:00:51.241Z,75.27
2018-09-11T01:01:51.402Z,74.61
2018-09-11T01:02:51.588Z,74.99
2018-09-11T01:03:51.759Z,74.95
2018-09-11T01:04:51.940Z,74.90
2018-09-11T01:05:52.142Z,74.61
2018-09-11T01:06:52.332Z,74.51
2018-09-11T01:07:52.500Z,74.51
2018-09-11T01:10:35.410Z,73.52
2018-09-11T01:11:35.596Z,72.98
2018-09-11T01:12:35.809Z,72.28
2018-09-11T01:13:35.990Z,70.97
2018-09-11T01:14:36.136Z,70.21
2018-09-11T01:15:36.298Z,69.50
2018-09-11T01:16:36.486Z,69.35
2018-09-11T01:17:36.661Z,68.45
2018-09-11T01:18:36.853Z,68.68
2018-09-11T01:19:37.054Z,68.55
2018-09-11T01:20:37.295Z,68.01
2018-09-11T01:21:37.435Z,68.10
2018-09-11T01:22:37.572Z,68.58
2018-09-11T01:23:37.755Z,68.29
2018-09-11T01:24:37.974Z,68.58
2018-09-11T01:25:38.125Z,68.77
2018-09-11T01:26:38.294Z,69.06
2018-09-11T01:27:38.497Z,68.77
2018-09-11T01:28:38.641Z,68.68
2018-09-11T01:29:38.861Z,68.87
2018-09-11T01:30:39.097Z,68.68
2018-09-11T01:31:39.292Z,68.68
2018-09-11T01:32:39.422Z,69.15
2018-09-11T01:33:39.607Z,68.29
2018-09-11T01:34:39.782Z,68.87
2018-09-11T01:35:39.965Z,70.11
2018-09-11T01:36:40.148Z,70.11
2018-09-11T01:37:40.332Z,70.40
2018-09-11T01:38:40.566Z,70.78
2018-09-11T01:39:40.705Z,71.36
2018-09-11T01:40:40.901Z,72.02
2018-09-11T01:41:41.124Z,71.64
2018-09-11T01:42:41.285Z,71.70
2018-09-11T01:43:41.452Z,72.41
2018-09-11T01:44:41.633Z,72.79
2018-09-11T01:45:41.818Z,72.85
2018-09-11T01:46:42.018Z,72.41
2018-09-11T01:47:42.180Z,70.94
2018-09-11T01:48:42.349Z,70.07
2018-09-11T01:49:42.541Z,69.50
2018-09-11T01:50:42.722Z,69.60
2018-09-11T01:51:42.884Z,68.93
2018-09-11T01:52:43.065Z,68.35
2018-09-11T01:53:43.244Z,66.06
2018-09-11T01:54:43.416Z,65.58
2018-09-11T01:55:43.627Z,66.06
2018-09-11T01:56:43.800Z,67.02
2018-09-11T01:57:43.976Z,66.54
2018-09-11T01:58:44.215Z,67.30
2018-09-11T01:59:44.336Z,67.88
2018-09-11T02:00:44.529Z,68.35
2018-09-11T02:01:44.702Z,66.54
2018-09-11T02:02:44.921Z,66.35
2018-09-11T02:03:45.082Z,66.25
2018-09-11T02:04:45.288Z,65.48
2018-09-11T02:05:45.473Z,64.34
2018-09-11T02:06:45.641Z,64.25
2018-09-11T02:07:45.821Z,63.86
2018-09-11T02:08:46.007Z,63.76
2018-09-11T02:09:46.177Z,63.19
2018-09-11T02:10:46.352Z,62.33
2018-09-11T02:11:46.538Z,62.04
2018-09-11T02:12:46.737Z,62.62
2018-09-11T02:13:46.915Z,63.00
2018-09-11T02:14:47.079Z,62.90
2018-09-11T02:15:47.271Z,63.67
2018-09-11T02:16:47.440Z,63.96
2018-09-11T02:17:47.618Z,64.72
2018-09-11T02:18:47.810Z,66.25
2018-09-11T02:19:47.984Z,65.58
2018-09-11T02:20:48.165Z,64.72
2018-09-11T02:21:48.351Z,64.25
2018-09-11T02:22:48.535Z,63.67
2018-09-11T02:23:48.719Z,63.76
2018-09-11T02:24:48.902Z,63.57
2018-09-11T02:25:49.079Z,63.76
2018-09-11T02:26:49.254Z,65.01
2018-09-11T02:27:49.437Z,64.15
2018-09-11T02:28:49.653Z,64.15
2018-09-11T02:29:49.799Z,62.04
2018-09-11T02:30:49.987Z,61.66
2018-09-11T02:31:50.157Z,61.19
2018-09-11T02:32:50.320Z,60.90
2018-09-11T02:33:50.508Z,61.09
2018-09-11T02:34:50.666Z,61.85
2018-09-11T02:35:50.927Z,62.81
2018-09-11T02:36:51.049Z,63.29
2018-09-11T02:37:51.202Z,61.66
2018-09-11T02:38:51.401Z,62.33
2018-09-11T02:39:51.553Z,63.10
2018-09-11T02:40:51.760Z,63.16
2018-09-11T02:41:51.918Z,63.00
2018-09-11T02:42:52.096Z,62.30
2018-09-11T02:43:52.281Z,62.21
2018-09-11T02:44:52.479Z,61.63
2018-09-11T02:45:52.628Z,62.30
2018-09-11T02:46:52.797Z,61.72
2018-09-11T02:47:52.982Z,61.54
2018-09-11T02:48:53.158Z,62.21
2018-09-11T02:49:53.343Z,62.40
2018-09-11T02:50:53.529Z,61.82
2018-09-11T02:51:53.702Z,62.30
2018-09-11T02:52:53.881Z,62.21
2018-09-11T02:53:54.092Z,62.21
2018-09-11T02:54:54.292Z,60.96
2018-09-11T02:55:54.438Z,58.86
2018-09-11T02:56:54.613Z,57.71
2018-09-11T02:57:54.793Z,56.57
2018-09-11T02:58:54.980Z,55.32
2018-09-11T02:59:55.156Z,53.61
2018-09-11T03:00:55.361Z,53.51
2018-09-11T03:01:55.548Z,53.41
2018-09-11T03:02:55.767Z,53.03
2018-09-11T03:03:55.913Z,53.03
2018-09-11T03:04:56.075Z,53.51
2018-09-11T03:05:56.245Z,53.99
2018-09-11T03:06:56.436Z,53.41
2018-09-11T03:07:56.607Z,53.22
2018-09-11T03:08:56.801Z,51.98
2018-09-11T03:09:56.991Z,50.90
2018-09-11T03:10:57.161Z,49.78
2018-09-11T03:11:57.349Z,49.21
2018-09-11T03:12:57.558Z,49.69
2018-09-11T03:13:57.751Z,50.07
2018-09-11T03:14:57.908Z,49.69
2018-09-11T03:15:58.091Z,50.07
2018-09-11T03:16:58.269Z,49.88
2018-09-11T03:17:58.483Z,50.07
2018-09-11T03:18:58.642Z,49.95
2018-09-11T03:19:58.830Z,50.35
2018-09-11T03:20:58.981Z,49.76
2018-09-11T03:21:59.168Z,49.47
2018-09-11T03:22:59.363Z,48.42
2018-09-11T03:23:59.557Z,46.70
2018-09-11T03:24:59.724Z,46.80
2018-09-11T03:25:59.890Z,47.27
2018-09-11T03:27:00.078Z,46.61
2018-09-11T03:28:00.258Z,45.65
2018-09-11T03:29:00.476Z,44.89
2018-09-11T03:30:00.654Z,44.60
2018-09-11T03:31:00.824Z,44.51
2018-09-11T03:32:01.028Z,44.31
2018-09-11T03:33:01.180Z,42.31
2018-09-11T03:34:01.357Z,41.06
2018-09-11T03:35:01.532Z,39.83
2018-09-11T03:36:01.721Z,38.78
2018-09-11T03:37:01.903Z,38.96
2018-09-11T03:38:02.093Z,38.78
2018-09-11T03:39:02.259Z,39.35
2018-09-11T03:40:02.422Z,41.38
2018-09-11T03:41:02.598Z,41.64
2018-09-11T03:42:02.833Z,42.40
2018-09-11T03:43:02.955Z,41.83
2018-09-11T03:44:03.246Z,42.50
2018-09-11T03:45:03.346Z,42.88
2018-09-11T03:46:03.561Z,43.74
2018-09-11T03:47:03.705Z,43.65
2018-09-11T03:48:03.914Z,44.02
2018-09-11T03:49:04.071Z,44.22
2018-09-11T03:50:04.308Z,44.79
2018-09-11T03:51:04.541Z,45.84
2018-09-11T03:52:04.695Z,45.94
2018-09-11T03:53:04.880Z,45.08
2018-09-11T03:54:05.075Z,45.75
2018-09-11T03:55:05.231Z,45.46
2018-09-11T03:56:05.414Z,44.79
2018-09-11T03:57:05.598Z,45.08
2018-09-11T03:58:05.789Z,44.67
2018-09-11T03:59:05.993Z,43.15
2018-09-11T04:00:06.153Z,40.01
2018-09-11T04:01:06.307Z,37.82
2018-09-11T04:02:06.493Z,37.24
2018-09-11T04:03:06.694Z,37.34
2018-09-11T04:04:06.863Z,36.77
2018-09-11T04:05:07.045Z,35.82
2018-09-11T04:06:07.225Z,34.48
2018-09-11T04:07:07.404Z,34.00
2018-09-11T04:08:07.580Z,34.28
2018-09-11T04:09:07.753Z,33.91
2018-09-11T04:10:07.953Z,34.77
2018-09-11T04:11:08.133Z,34.67
2018-09-11T04:12:08.314Z,34.86
2018-09-11T04:13:08.496Z,35.33
2018-09-11T04:14:08.675Z,36.00
2018-09-11T04:15:08.872Z,36.58
2018-09-11T04:16:09.100Z,37.63
2018-09-11T04:17:09.261Z,38.78
2018-09-11T04:18:09.452Z,40.11
2018-09-11T04:19:09.589Z,40.11
2018-09-11T04:20:09.762Z,41.26
2018-09-11T04:21:09.972Z,40.88
2018-09-11T04:22:10.149Z,39.06
2018-09-11T04:23:10.324Z,39.35
2018-09-11T04:24:10.543Z,39.92
2018-09-11T04:25:10.709Z,39.73
2018-09-11T04:26:10.881Z,40.49
2018-09-11T04:27:11.104Z,41.55
2018-09-11T04:28:11.238Z,43.65
2018-09-11T04:29:11.469Z,43.26
2018-09-11T04:30:11.658Z,44.60
2018-09-11T04:31:11.781Z,43.84
2018-09-11T04:32:11.977Z,43.84
2018-09-11T04:33:12.163Z,44.89
2018-09-11T04:34:12.341Z,44.51
2018-09-11T04:35:12.555Z,44.29
2018-09-11T04:36:12.722Z,43.72
2018-09-11T04:37:12.884Z,43.33
2018-09-11T04:38:13.018Z,42.00
2018-09-11T04:39:13.202Z,41.91
2018-09-11T04:40:13.382Z,43.24
2018-09-11T04:41:13.556Z,43.05
2018-09-11T04:42:13.740Z,42.77
2018-09-11T04:43:13.961Z,42.29
2018-09-11T04:44:14.138Z,42.48
2018-09-11T04:45:14.306Z,42.57
2018-09-11T04:46:14.599Z,42.57
2018-09-11T04:47:14.629Z,42.48
2018-09-11T04:48:14.770Z,40.66
2018-09-11T04:49:14.991Z,39.42
2018-09-11T04:50:15.259Z,38.76
2018-09-11T04:51:15.352Z,37.99
2018-09-11T04:52:15.468Z,36.94
2018-09-11T04:53:15.659Z,36.18
2018-09-11T04:54:15.866Z,35.89
2018-09-11T04:55:16.035Z,35.13
2018-09-11T04:56:16.523Z,34.57
2018-09-11T04:57:16.558Z,34.57
2018-09-11T04:58:16.891Z,34.00
2018-09-11T04:59:16.834Z,33.71
2018-09-11T05:00:17.004Z,34.00
2018-09-11T05:01:17.212Z,34.67
2018-09-11T05:02:17.359Z,37.24
2018-09-11T05:03:17.557Z,38.30
2018-09-11T05:04:17.755Z,38.39
2018-09-11T05:05:17.930Z,38.01
2018-09-11T05:06:18.107Z,38.01
2018-09-11T05:07:18.303Z,38.39
2018-09-11T05:08:18.496Z,38.10
2018-09-11T05:09:18.663Z,38.10
2018-09-11T05:10:18.848Z,38.22
2018-09-11T05:11:19.055Z,38.03
2018-09-11T05:12:19.428Z,39.94
2018-09-11T05:13:19.430Z,40.99
2018-09-11T05:14:19.617Z,43.66
2018-09-11T05:15:19.798Z,46.94
2018-09-11T05:16:19.970Z,50.19
2018-09-11T05:17:20.155Z,55.93
2018-09-11T05:18:20.347Z,59.78
2018-09-11T05:19:20.569Z,63.80
2018-09-11T05:20:20.693Z,69.25
2018-09-11T05:21:20.867Z,73.46
2018-09-11T05:22:21.053Z,75.31
2018-09-11T05:23:21.234Z,75.79
2018-09-11T05:24:21.422Z,77.51
2018-09-11T05:25:21.601Z,77.51
2018-09-11T05:26:21.807Z,78.19
2018-09-11T05:27:21.981Z,79.52
2018-09-11T05:28:22.166Z,80.19
2018-09-11T05:29:22.336Z,81.05
2018-09-11T05:30:22.528Z,82.97
2018-09-11T05:31:22.706Z,82.68
2018-09-11T05:32:22.890Z,82.01
2018-09-11T05:33:23.088Z,81.73
2018-09-11T05:34:23.247Z,81.82
2018-09-11T05:35:23.459Z,82.78
2018-09-11T05:36:23.626Z,82.87
2018-09-11T05:37:23.812Z,82.20
2018-09-11T05:38:24.028Z,82.40
2018-09-11T05:39:24.183Z,82.97
2018-09-11T05:40:24.351Z,83.16
2018-09-11T05:41:24.528Z,83.45
2018-09-11T05:42:24.719Z,83.54
2018-09-11T05:43:24.896Z,83.45
2018-09-11T05:44:25.083Z,83.83
2018-09-11T05:45:25.266Z,86.28
2018-09-11T05:46:25.460Z,87.66
2018-09-11T05:47:25.638Z,85.94
2018-09-11T05:48:25.812Z,87.47
2018-09-11T05:49:25.997Z,88.09
2018-09-11T05:50:26.184Z,87.90
2018-09-11T05:51:26.384Z,87.08
2018-09-11T05:52:26.548Z,88.33
2018-09-11T05:53:26.742Z,90.34
2018-09-11T05:54:26.897Z,90.77
2018-09-11T05:55:27.093Z,90.96
2018-09-11T05:56:27.278Z,90.77
2018-09-11T05:57:27.461Z,90.86
2018-09-11T05:58:27.733Z,92.11
2018-09-11T05:59:27.897Z,92.21
2018-09-11T06:00:28.059Z,94.69
2018-09-11T06:01:28.243Z,94.02
2018-09-11T06:02:28.422Z,93.54
2018-09-11T06:03:28.607Z,93.69
2018-09-11T06:04:28.807Z,93.12
2018-09-11T06:05:29.032Z,91.87
2018-09-11T06:06:29.147Z,92.01
2018-09-11T06:07:29.337Z,94.50
2018-09-11T06:08:29.557Z,94.31
2018-09-11T06:09:29.759Z,96.56
2018-09-11T06:10:29.956Z,96.18
2018-09-11T06:11:30.146Z,97.42
2018-09-11T06:12:30.335Z,97.61
2018-09-11T06:13:30.529Z,98.10
2018-09-11T06:14:30.714Z,98.38
2018-09-11T06:15:30.897Z,99.15
2018-09-11T06:16:31.083Z,98.33
2018-09-11T06:17:31.268Z,99.01
2018-09-11T06:18:31.457Z,99.63
2018-09-11T06:19:31.641Z,99.53
2018-09-11T06:20:31.879Z,99.99
2018-09-11T06:21:32.011Z,99.99
2018-09-11T06:22:32.218Z,99.99
2018-09-11T06:23:32.388Z,99.99
2018-09-11T06:24:32.551Z,99.99
2018-09-11T06:25:32.743Z,99.99
2018-09-11T06:26:32.930Z,99.99
2018-09-11T06:27:33.109Z,99.99
2018-09-11T06:28:33.340Z,99.99
2018-09-11T06:29:33.497Z,99.99
2018-09-11T06:30:33.663Z,99.99
2018-09-11T06:31:33.843Z,99.99
2018-09-11T06:32:34.032Z,99.99
2018-09-11T06:33:34.235Z,99.99
2018-09-11T06:34:34.400Z,99.99
2018-09-11T06:35:34.687Z,99.99
2018-09-11T06:36:34.789Z,99.99
2018-09-11T06:37:34.946Z,99.99
2018-09-11T06:38:35.136Z,99.99
2018-09-11T06:39:35.310Z,99.99
2018-09-11T06:40:35.495Z,99.99
2018-09-11T06:41:35.693Z,99.99
2018-09-11T06:42:35.905Z,99.99
2018-09-11T06:43:36.052Z,99.99
2018-09-11T06:44:36.275Z,99.99
2018-09-11T06:45:36.426Z,99.99
2018-09-11T06:46:36.624Z,99.99
2018-09-11T06:47:36.817Z,99.99
2018-09-11T06:48:36.981Z,99.99
2018-09-11T06:49:37.171Z,99.99
2018-09-11T06:50:37.358Z,99.99
2018-09-11T06:51:37.550Z,99.99
2018-09-11T06:52:37.734Z,99.99
2018-09-11T06:53:37.921Z,99.99
2018-09-11T06:54:38.132Z,99.99
2018-09-11T06:55:38.369Z,99.99
2018-09-11T06:56:38.472Z,99.99
2018-09-11T06:57:38.676Z,99.99
2018-09-11T06:58:38.851Z,99.99
2018-09-11T06:59:39.068Z,99.99
2018-09-11T07:00:39.360Z,99.99
2018-09-11T07:01:39.502Z,99.99
2018-09-11T07:02:39.693Z,99.99
2018-09-11T07:03:39.874Z,99.99
2018-09-11T07:04:40.055Z,99.99
2018-09-11T07:05:40.244Z,99.99
2018-09-11T07:06:40.428Z,99.99
2018-09-11T07:07:40.629Z,99.99
2018-09-11T07:08:40.816Z,99.99
2018-09-11T07:09:41.052Z,99.99
2018-09-11T07:10:41.239Z,99.99
2018-09-11T07:11:41.366Z,99.99
2018-09-11T07:12:41.563Z,99.99
2018-09-11T07:13:41.757Z,99.99
2018-09-11T07:14:41.956Z,99.99
2018-09-11T07:15:42.121Z,99.99
2018-09-11T07:16:42.315Z,99.99
2018-09-11T07:17:42.521Z,99.99
2018-09-11T07:18:42.701Z,99.99
2018-09-11T07:19:42.965Z,99.99
2018-09-11T07:20:43.090Z,99.99
2018-09-11T07:21:43.246Z,99.99
2018-09-11T07:22:43.427Z,99.99
2018-09-11T07:23:43.626Z,99.99
2018-09-11T07:24:43.801Z,99.99
2018-09-11T07:25:43.998Z,99.99
2018-09-11T07:26:44.190Z,99.99
2018-09-11T07:27:44.378Z,99.99
2018-09-11T07:28:44.576Z,99.99
2018-09-11T07:29:44.761Z,99.99
2018-09-11T07:30:45.092Z,99.99
2018-09-11T07:31:45.134Z,99.99
2018-09-11T07:32:45.320Z,99.99
2018-09-11T07:33:45.504Z,99.99
2018-09-11T07:34:45.693Z,99.99
2018-09-11T07:35:45.890Z,99.99
2018-09-11T07:36:46.062Z,99.99
2018-09-11T07:37:46.273Z,99.99
2018-09-11T07:38:46.428Z,99.99
2018-09-11T07:39:46.629Z,99.99
2018-09-11T07:40:46.803Z,99.99
2018-09-11T07:41:47.015Z,99.99
2018-09-11T07:42:47.180Z,99.99
2018-09-11T07:43:47.461Z,99.99
2018-09-11T07:44:47.550Z,99.99
2018-09-11T07:45:47.737Z,99.99
2018-09-11T07:46:47.951Z,99.99
2018-09-11T07:47:48.130Z,99.99
2018-09-11T07:48:48.286Z,99.99
2018-09-11T07:49:48.466Z,99.99
2018-09-11T07:50:48.672Z,99.99
2018-09-11T07:51:48.853Z,99.99
2018-09-11T07:52:49.059Z,99.99
2018-09-11T07:53:49.225Z,99.99
2018-09-11T07:54:49.406Z,99.99
2018-09-11T07:55:49.587Z,99.99
2018-09-11T07:56:50.389Z,99.99
2018-09-11T07:57:50.029Z,99.99
2018-09-11T07:58:50.265Z,99.99
2018-09-11T07:59:50.417Z,99.99
2018-09-11T08:00:50.615Z,99.99
2018-09-11T08:01:50.784Z,99.99
2018-09-11T08:02:50.976Z,99.99
2018-09-11T08:03:51.162Z,99.99
2018-09-11T08:04:51.360Z,99.99
2018-09-11T08:05:51.546Z,99.99
2018-09-11T08:06:51.890Z,99.99
2018-09-11T08:09:36.167Z,99.99
2018-09-11T08:10:34.833Z,99.99
2018-09-11T08:11:35.022Z,99.99
2018-09-11T08:12:35.247Z,99.99
2018-09-11T08:13:35.442Z,99.99
2018-09-11T08:14:35.605Z,99.99
2018-09-11T08:15:35.794Z,99.98
2018-09-11T08:16:35.984Z,99.99
2018-09-11T08:17:36.178Z,99.99
2018-09-11T08:18:36.388Z,98.68
2018-09-11T08:19:36.623Z,99.16
2018-09-11T08:20:36.748Z,99.99
2018-09-11T08:21:36.952Z,98.82
2018-09-11T08:22:37.117Z,98.63
2018-09-11T08:23:37.295Z,98.63
2018-09-11T08:24:37.501Z,98.00
2018-09-11T08:25:37.694Z,98.68
2018-09-11T08:26:37.884Z,98.54
2018-09-11T08:27:38.086Z,98.63
2018-09-11T08:28:38.258Z,98.73
2018-09-11T08:29:38.453Z,98.63
2018-09-11T08:30:38.630Z,97.19
2018-09-11T08:31:38.819Z,97.28
2018-09-11T08:32:39.005Z,98.05
2018-09-11T08:33:39.188Z,97.09
2018-09-11T08:34:39.429Z,96.61
2018-09-11T08:35:39.569Z,96.89
2018-09-11T08:36:39.844Z,96.51
2018-09-11T08:37:39.963Z,96.80
2018-09-11T08:38:40.135Z,96.66
2018-09-11T08:39:40.321Z,97.24
2018-09-11T08:40:40.559Z,97.24
2018-09-11T08:41:40.705Z,96.94
2018-09-11T08:42:40.899Z,98.10
2018-09-11T08:43:41.222Z,97.19
2018-09-11T08:44:41.317Z,95.93
2018-09-11T08:45:41.496Z,95.40
2018-09-11T08:46:41.746Z,96.37
2018-09-11T08:47:41.893Z,96.66
2018-09-11T08:48:42.094Z,96.85
2018-09-11T08:49:42.310Z,96.85
2018-09-11T08:50:43.123Z,97.91
2018-09-11T08:51:42.653Z,95.89
2018-09-11T08:52:42.811Z,96.51
2018-09-11T08:53:43.033Z,96.12
2018-09-11T08:54:43.162Z,96.41
2018-09-11T08:55:43.349Z,95.54
2018-09-11T08:56:43.545Z,95.64
2018-09-11T08:57:43.745Z,95.06
2018-09-11T08:58:43.977Z,95.36
2018-09-11T08:59:44.116Z,94.87
2018-09-11T09:00:44.290Z,94.68
2018-09-11T09:01:44.473Z,94.96
2018-09-11T09:02:44.679Z,94.92
2018-09-11T09:03:44.866Z,94.34
2018-09-11T09:04:45.076Z,94.53
2018-09-11T09:05:45.267Z,93.95
2018-09-11T09:06:45.456Z,93.57
2018-09-11T09:07:45.644Z,92.99
2018-09-11T09:08:45.835Z,92.89
2018-09-11T09:09:46.026Z,93.37
2018-09-11T09:10:46.218Z,94.00
2018-09-11T09:11:46.403Z,92.46
2018-09-11T09:12:46.598Z,91.93
2018-09-11T09:13:46.786Z,92.41
2018-09-11T09:14:47.025Z,92.70
2018-09-11T09:15:47.153Z,92.70
2018-09-11T09:16:47.333Z,92.12
2018-09-11T09:17:47.515Z,91.01
2018-09-11T09:18:47.696Z,90.33
2018-09-11T09:19:47.878Z,92.12
2018-09-11T09:20:48.111Z,90.58
2018-09-11T09:21:48.276Z,91.83
2018-09-11T09:22:48.460Z,91.20
2018-09-11T09:23:49.596Z,91.01
2018-09-11T09:24:48.786Z,89.95
2018-09-11T09:25:48.966Z,90.14
2018-09-11T09:26:49.155Z,90.53
2018-09-11T09:27:49.346Z,89.61
2018-09-11T09:28:49.689Z,90.58
2018-09-11T09:29:49.797Z,90.67
2018-09-11T09:30:49.969Z,90.67
2018-09-11T09:31:50.166Z,90.67
2018-09-11T09:32:50.405Z,90.38
2018-09-11T09:33:50.544Z,91.78
2018-09-11T09:34:50.764Z,89.65
2018-09-11T09:35:50.910Z,88.69
2018-09-11T09:36:51.163Z,89.47
2018-09-11T09:37:51.292Z,90.67
2018-09-11T09:38:51.486Z,90.19
2018-09-11T09:39:51.687Z,89.07
2018-09-11T09:40:51.875Z,88.54
2018-09-11T09:41:52.089Z,88.54
2018-09-11T09:42:52.545Z,87.77
2018-09-11T09:43:52.430Z,88.35
2018-09-11T09:44:52.614Z,87.09
2018-09-11T09:45:52.841Z,87.19
2018-09-11T09:46:53.026Z,88.54
2018-09-11T09:47:53.214Z,86.85
2018-09-11T09:48:53.426Z,85.94
2018-09-11T09:49:53.635Z,85.74
2018-09-11T09:50:53.876Z,87.87
2018-09-11T09:51:54.003Z,88.25
2018-09-11T09:52:54.218Z,88.59
2018-09-11T09:53:54.426Z,87.08
2018-09-11T09:54:54.644Z,86.41
2018-09-11T09:55:54.791Z,85.05
2018-09-11T09:56:55.003Z,85.44
2018-09-11T09:57:55.194Z,84.86
2018-09-11T09:58:55.453Z,85.44
2018-09-11T09:59:55.583Z,84.47
2018-09-11T10:00:55.782Z,85.01
2018-09-11T10:01:55.986Z,84.63
2018-09-11T10:02:56.151Z,86.36
2018-09-11T10:03:56.343Z,86.17
2018-09-11T10:04:56.604Z,85.88
2018-09-11T10:05:56.764Z,85.36
2018-09-11T10:06:56.977Z,85.41
2018-09-11T10:07:57.136Z,86.90
2018-09-11T10:08:57.355Z,85.84
2018-09-11T10:09:57.502Z,86.61
2018-09-11T10:10:57.692Z,85.74
2018-09-11T10:11:57.880Z,85.80
2018-09-11T10:12:58.070Z,87.01
2018-09-11T10:13:58.277Z,87.92
2018-09-11T10:14:58.464Z,87.63
2018-09-11T10:15:58.683Z,87.38
2018-09-11T10:16:58.855Z,86.71
2018-09-11T10:17:59.015Z,86.03
2018-09-11T10:18:59.209Z,86.90
2018-09-11T10:19:59.422Z,87.15
2018-09-11T10:20:59.610Z,87.09
2018-09-11T10:21:59.784Z,86.90
2018-09-11T10:23:00.013Z,87.29
2018-09-11T10:24:00.168Z,87.67
2018-09-11T10:25:00.374Z,87.91
2018-09-11T10:26:00.589Z,86.36
2018-09-11T10:27:00.791Z,86.65
2018-09-11T10:28:00.934Z,86.27
2018-09-11T10:29:01.121Z,85.69
2018-09-11T10:30:01.309Z,86.51
2018-09-11T10:31:01.491Z,85.98
2018-09-11T10:32:01.695Z,86.65
2018-09-11T10:33:01.940Z,85.78
2018-09-11T10:34:02.093Z,86.13
2018-09-11T10:35:02.252Z,86.85
2018-09-11T10:36:02.441Z,87.52
2018-09-11T10:37:02.630Z,87.13
2018-09-11T10:38:02.818Z,85.78
2018-09-11T10:39:03.057Z,85.78
2018-09-11T10:40:03.192Z,86.02
2018-09-11T10:41:03.380Z,85.63
2018-09-11T10:42:03.566Z,85.78
2018-09-11T10:43:03.775Z,87.52
2018-09-11T10:44:03.925Z,87.33
2018-09-11T10:45:04.154Z,86.85
2018-09-11T10:46:04.289Z,86.07
2018-09-11T10:47:04.540Z,87.33
2018-09-11T10:48:04.729Z,87.66
2018-09-11T10:49:04.913Z,86.11
2018-09-11T10:50:05.105Z,85.73
2018-09-11T10:51:05.292Z,86.02
2018-09-11T10:52:05.485Z,84.19
2018-09-11T10:53:05.724Z,84.86
2018-09-11T10:54:05.868Z,84.82
2018-09-11T10:55:06.059Z,85.30
2018-09-11T10:56:06.254Z,85.63
2018-09-11T10:57:06.432Z,85.25
2018-09-11T10:58:06.621Z,85.10
2018-09-11T10:59:06.809Z,84.84
2018-09-11T11:00:07.000Z,83.98
2018-09-11T11:01:07.188Z,83.45
2018-09-11T11:02:07.386Z,84.08
2018-09-11T11:03:07.571Z,83.78
2018-09-11T11:04:07.781Z,82.81
2018-09-11T11:05:07.962Z,83.30
2018-09-11T11:06:08.175Z,83.11
2018-09-11T11:07:08.372Z,83.01
2018-09-11T11:08:08.636Z,83.69
2018-09-11T11:09:08.742Z,83.01
2018-09-11T11:10:08.939Z,83.11
2018-09-11T11:11:09.127Z,83.88
2018-09-11T11:12:09.400Z,83.20
2018-09-11T11:13:09.498Z,83.34
2018-09-11T11:14:09.854Z,83.15
2018-09-11T11:15:09.831Z,82.47
2018-09-11T11:16:10.024Z,80.73
2018-09-11T11:17:10.269Z,81.70
2018-09-11T11:18:10.403Z,81.83
2018-09-11T11:19:10.587Z,79.95
2018-09-11T11:20:10.826Z,80.34
2018-09-11T11:21:10.960Z,80.20
2018-09-11T11:22:11.156Z,80.49
2018-09-11T11:23:11.360Z,80.44
2018-09-11T11:24:11.516Z,80.54
2018-09-11T11:25:11.713Z,80.15
2018-09-11T11:26:11.901Z,80.54
2018-09-11T11:27:12.130Z,80.15
2018-09-11T11:28:12.281Z,81.12
2018-09-11T11:29:12.527Z,81.02
2018-09-11T11:30:12.661Z,80.96
2018-09-11T11:31:12.851Z,80.90
2018-09-11T11:32:13.062Z,79.16
2018-09-11T11:33:13.233Z,78.44
2018-09-11T11:34:13.431Z,77.76
2018-09-11T11:35:13.621Z,77.67
2018-09-11T11:36:13.923Z,77.76
2018-09-11T11:37:14.128Z,76.89
2018-09-11T11:38:14.202Z,77.09
2018-09-11T11:39:14.424Z,76.21
2018-09-11T11:40:14.587Z,77.24
2018-09-11T11:41:14.780Z,78.69
2018-09-11T11:42:14.988Z,78.25
2018-09-11T11:43:15.181Z,78.05
2018-09-11T11:44:15.337Z,76.74
2018-09-11T11:45:15.526Z,75.96
2018-09-11T11:46:15.724Z,75.57
2018-09-11T11:47:15.945Z,75.31
2018-09-11T11:48:16.214Z,76.79
2018-09-11T11:49:16.364Z,76.95
2018-09-11T11:50:16.520Z,77.86
2018-09-11T11:51:16.698Z,76.02
2018-09-11T11:52:16.892Z,75.83
2018-09-11T11:53:17.100Z,76.54
2018-09-11T11:54:17.264Z,75.67
2018-09-11T11:55:17.439Z,75.48
2018-09-11T11:56:17.631Z,75.87
2018-09-11T11:57:17.823Z,75.77
2018-09-11T11:58:18.010Z,77.12
2018-09-11T11:59:18.210Z,77.26
2018-09-11T12:00:18.422Z,75.51
2018-09-11T12:01:18.622Z,75.61
2018-09-11T12:02:18.787Z,74.84
2018-09-11T12:03:18.963Z,74.74
2018-09-11T12:04:19.150Z,75.51
2018-09-11T12:05:19.330Z,75.23
2018-09-11T12:06:19.566Z,74.84
2018-09-11T12:07:19.755Z,75.09
2018-09-11T12:08:19.944Z,75.09
2018-09-11T12:09:20.655Z,75.38
2018-09-11T12:10:20.277Z,75.87
2018-09-11T12:11:20.490Z,76.97
2018-09-11T12:12:20.826Z,75.16
2018-09-11T12:13:20.890Z,73.42
2018-09-11T12:14:21.074Z,73.32
2018-09-11T12:15:21.288Z,72.06
2018-09-11T12:16:21.503Z,72.22
2018-09-11T12:17:21.655Z,73.28
2018-09-11T12:18:21.879Z,73.48
2018-09-11T12:19:22.125Z,73.19
2018-09-11T12:20:22.275Z,73.38
2018-09-11T12:21:22.496Z,73.77
2018-09-11T12:22:22.832Z,72.41
2018-09-11T12:23:22.915Z,73.19
2018-09-11T12:24:23.112Z,74.26
2018-09-11T12:25:23.317Z,73.48
2018-09-11T12:26:23.569Z,72.99
2018-09-11T12:27:23.822Z,72.12
2018-09-11T12:28:23.898Z,71.73
2018-09-11T12:29:24.095Z,71.83
2018-09-11T12:30:24.272Z,71.93
2018-09-11T12:31:24.481Z,73.22
2018-09-11T12:32:24.669Z,71.67
2018-09-11T12:33:24.862Z,70.09
2018-09-11T12:34:25.065Z,70.57
2018-09-11T12:35:25.417Z,70.67
2018-09-11T12:36:25.611Z,71.73
2018-09-11T12:37:25.745Z,71.93
2018-09-11T12:38:25.940Z,71.83
2018-09-11T12:39:26.125Z,71.77
2018-09-11T12:40:26.309Z,71.38
2018-09-11T12:41:26.500Z,71.19
2018-09-11T12:42:26.699Z,71.09
2018-09-11T12:43:26.913Z,71.03
2018-09-11T12:44:27.116Z,70.73
2018-09-11T12:45:27.329Z,70.06
2018-09-11T12:46:27.912Z,70.25
2018-09-11T12:47:27.807Z,69.80
2018-09-11T12:48:28.049Z,68.77
2018-09-11T12:49:28.119Z,67.37
2018-09-11T12:50:28.260Z,67.76
2018-09-11T12:51:28.445Z,65.92
2018-09-11T12:52:28.648Z,65.92
2018-09-11T12:53:28.858Z,65.63
2018-09-11T12:54:29.026Z,68.57
2018-09-11T12:55:29.234Z,66.24
2018-09-11T12:56:29.397Z,65.66
2018-09-11T12:57:29.592Z,65.33
2018-09-11T12:58:29.769Z,65.72